Vremea acum in Aiud - Romania

Vrei sa afli care e starea vremii acum in Alba - Romania? Dorim sa iti furnizam starea vremii pentru Alba - Romania. Starea vremii Alba - Romania pentru astazi.

Vremea acum in Aiud

Temperatura: 31 °C

Se simte ca: 30.2 °C
Innorat: 25 %
Precipitatii: 0 %
Presiune atmosferica: 1022 hPa
Umiditate: 31%
Vizibilitate: 10 km
Vantul bate din SE cu 15.1 km/h

Evolutia vremii in Aiud pe ore

Ora: 15:00
Parțial noros
Temperatura: 32.9°C
Sansa de precipitatii: 0%
Ora Descriere Temp Se simte Precipitatii Umiditate Vant
00:00Parțial noros24.4°26.4°0%59%ENE 6.5 KM/H
01:00Parțial noros21.8°21.8°0%61%NE 5.8 KM/H
02:00Parțial noros19.3°19.3°0%64%N 4.7 KM/H
03:00Parțial noros18.9°18.9°0%67%NNE 4.3 KM/H
04:00Parțial noros18.5°18.5°0%70%NNE 4.3 KM/H
05:00Parțial noros18.1°18.1°0%72%NE 4 KM/H
06:00Parțial noros19.7°19.7°0%66%ENE 4.7 KM/H
07:00Parțial noros21.4°21.4°0%60%E 5.8 KM/H
08:00Parțial noros23°24.8°0%54%ESE 6.5 KM/H
09:00Parțial noros25.7°26.8°0%47%ESE 6.1 KM/H
10:00Parțial noros28.4°28.7°0%41%ESE 5.8 KM/H
11:00Parțial noros31.1°30.7°0%34%ESE 5.4 KM/H
12:00Parțial noros32°31.5°0%32%ESE 5 KM/H
13:00Parțial noros33°32.2°0%29%E 5 KM/H
14:00Parțial noros33.9°33°0%27%E 4.7 KM/H
15:00Parțial noros32.9°32.2°0%29%ESE 5.4 KM/H
16:00Parțial noros32°31.3°0%31%ESE 6.1 KM/H
17:00Parțial noros31°30.5°0%33%SE 6.8 KM/H
18:00Ploi pe porţiuni în apropiere30.3°31°23%40%SE 5.4 KM/H
19:00Parțial noros29.7°31.5°47%46%SE 4 KM/H
20:00Ploi pe porţiuni în apropiere29°32°70%52%SE 2.5 KM/H
21:00Ploi pe porţiuni în apropiere27.7°30.3°73%57%ESE 4 KM/H
22:00Ploi pe porţiuni în apropiere26.3°28.7°77%61%ESE 5 KM/H
23:00Ploi pe porţiuni în apropiere25°27°80%66%ESE 6.5 KM/H